createdAt,value
2018-09-27T07:34:36.500Z,48.44
2018-09-27T07:35:36.420Z,48.14
2018-09-27T07:36:19.211Z,48.04
2018-09-27T07:37:19.129Z,48.04
2018-09-27T07:38:19.081Z,47.54
2018-09-27T07:39:19.026Z,47.31
2018-09-27T07:41:52.223Z,48.24
2018-09-27T07:42:52.363Z,48.16
2018-09-27T07:43:52.223Z,47.94
2018-09-27T07:44:51.604Z,48.14
2018-09-27T07:45:51.569Z,47.94
2018-09-27T07:46:51.573Z,47.86
2018-09-27T07:51:36.604Z,48.04
2018-09-27T07:52:30.161Z,48.14
2018-09-27T07:53:30.105Z,48.34
2018-09-27T07:54:30.254Z,47.94
2018-09-27T07:55:30.039Z,47.94
2018-09-27T07:56:30.185Z,47.84
2018-09-27T07:57:30.043Z,48.84
2018-09-27T07:58:30.021Z,48.24
2018-09-27T07:59:53.445Z,48.24
2018-09-27T08:00:53.418Z,48.24
2018-09-27T08:01:53.515Z,48.04
2018-09-27T08:02:53.625Z,47.94
2018-09-27T08:03:53.432Z,47.24
2018-09-27T08:04:53.420Z,47.31
2018-09-27T08:05:53.398Z,47.22
2018-09-27T08:06:53.414Z,48.02
2018-09-27T08:07:34.194Z,47.22
2018-09-27T08:08:50.916Z,47.31
2018-09-27T08:09:50.937Z,48.14
2018-09-27T08:10:50.812Z,48.14
2018-09-27T08:11:50.782Z,47.52
2018-09-27T08:12:50.723Z,47.61
2018-09-27T08:13:50.659Z,47.52
2018-09-27T08:14:50.641Z,47.31
2018-09-27T08:15:50.621Z,47.61
2018-09-27T08:16:50.763Z,47.61
2018-09-27T08:17:50.657Z,48.04
2018-09-27T08:18:41.026Z,48.14
2018-09-27T08:19:40.923Z,48.11
2018-09-27T08:20:41.099Z,48.04
2018-09-27T08:21:40.885Z,48.72
2018-09-27T08:22:40.824Z,47.60
2018-09-27T08:23:40.835Z,47.72
2018-09-27T08:24:40.784Z,47.49
2018-09-27T08:25:40.760Z,47.99
2018-09-27T08:26:40.778Z,47.60
2018-09-27T08:27:40.712Z,47.89
2018-09-27T08:28:40.698Z,47.52
2018-09-27T08:29:40.792Z,47.39
2018-09-27T08:30:40.799Z,47.30
2018-09-27T08:31:40.707Z,48.10
2018-09-27T08:32:40.742Z,47.89
2018-09-27T08:34:01.836Z,47.89
2018-09-27T08:34:30.130Z,48.19
2018-09-27T08:35:30.080Z,47.49
2018-09-27T08:36:30.045Z,48.10
2018-09-27T08:37:30.021Z,47.69
2018-09-27T08:49:54.027Z,47.60
2018-09-27T08:50:53.981Z,47.79
2018-09-27T08:51:53.983Z,47.39
2018-09-27T08:52:53.925Z,50.59
2018-09-27T08:54:07.407Z,48.69
2018-09-27T08:55:07.353Z,48.39
2018-09-27T08:56:07.440Z,48.49
2018-09-27T08:57:07.340Z,48.69
2018-09-27T08:58:07.214Z,48.39
2018-09-27T08:59:07.177Z,48.49
2018-09-27T09:00:07.121Z,48.90
2018-09-27T09:01:07.071Z,48.57
2018-09-27T09:02:07.027Z,49.97
2018-09-27T09:03:07.009Z,47.57
2018-09-27T09:04:06.910Z,48.77
2018-09-27T09:05:06.853Z,48.57
2018-09-27T09:06:07.578Z,48.47
2018-09-27T09:07:06.759Z,48.57
2018-09-27T09:08:06.735Z,47.97
2018-09-27T09:09:06.681Z,47.55
2018-09-27T09:10:06.591Z,48.14
2018-09-27T09:11:06.545Z,47.55
2018-09-27T09:12:06.513Z,47.65
2018-09-27T09:13:06.413Z,48.35
2018-09-27T09:14:06.408Z,48.05
2018-09-27T09:15:06.318Z,47.95
2018-09-27T09:50:05.578Z,43.54
2018-09-27T09:51:05.402Z,45.43
2018-09-27T09:52:05.345Z,44.64
2018-09-27T09:53:05.276Z,43.84
2018-09-27T09:54:05.203Z,45.01
2018-09-27T09:55:05.113Z,41.67
2018-09-27T09:56:29.186Z,36.23
2018-09-27T09:57:29.145Z,33.39
2018-09-27T09:58:29.135Z,32.57
2018-09-27T09:59:29.121Z,33.39
2018-09-27T10:00:29.159Z,34.61
2018-09-27T10:01:29.097Z,34.30
2018-09-27T10:02:29.148Z,33.89
2018-09-27T10:03:29.079Z,33.64
2018-09-27T10:04:29.067Z,33.65
2018-09-27T10:05:29.069Z,34.56
2018-09-27T10:06:29.079Z,35.16
2018-09-27T10:07:29.037Z,35.67
2018-09-27T10:08:29.038Z,35.35
2018-09-27T10:09:29.018Z,35.16
2018-09-27T10:10:29.007Z,35.07
2018-09-27T10:11:29.024Z,35.29
2018-09-27T10:12:29.025Z,35.22
2018-09-27T10:13:28.973Z,35.90
2018-09-27T10:14:28.963Z,35.90
2018-09-27T10:15:28.962Z,34.99
2018-09-27T10:16:28.940Z,35.25
2018-09-27T10:17:28.943Z,35.21
2018-09-27T10:18:28.949Z,34.99
2018-09-27T10:19:28.913Z,34.20
2018-09-27T10:20:28.914Z,33.89
2018-09-27T10:21:28.918Z,33.62
2018-09-27T10:22:28.879Z,34.43
2018-09-27T10:23:28.900Z,34.71
2018-09-27T10:24:28.865Z,32.83
2018-09-27T10:25:28.848Z,33.56
2018-09-27T10:26:28.835Z,33.57
2018-09-27T10:27:28.842Z,33.87
2018-09-27T10:28:28.836Z,34.73
2018-09-27T10:29:28.806Z,33.73
2018-09-27T10:30:28.795Z,33.52
2018-09-27T10:31:28.785Z,34.18
2018-09-27T10:32:28.781Z,32.29
2018-09-27T10:33:28.797Z,32.59
2018-09-27T10:34:28.804Z,32.07
2018-09-27T10:35:28.755Z,32.31
2018-09-27T10:36:28.738Z,32.52
2018-09-27T10:37:28.730Z,32.50
2018-09-27T10:38:28.749Z,32.31
2018-09-27T10:39:28.727Z,31.93
2018-09-27T10:40:28.703Z,33.09
2018-09-27T10:41:28.684Z,33.49
2018-09-27T10:42:28.674Z,34.22
2018-09-27T10:43:28.703Z,35.09
2018-09-27T10:44:28.658Z,33.69
2018-09-27T10:45:28.650Z,33.98
2018-09-27T10:46:28.637Z,33.39
2018-09-27T10:47:28.647Z,33.87
2018-09-27T10:48:28.657Z,33.77
2018-09-27T10:49:28.618Z,32.19
2018-09-27T10:50:28.593Z,32.68
2018-09-27T10:51:28.742Z,33.67
2018-09-27T10:52:28.579Z,32.90
2018-09-27T10:53:28.630Z,33.39
2018-09-27T10:54:28.580Z,33.77
2018-09-27T10:55:28.544Z,33.47
2018-09-27T10:56:28.533Z,33.39
2018-09-27T10:57:28.525Z,33.42
2018-09-27T10:58:28.518Z,33.44
2018-09-27T10:59:28.558Z,33.78
2018-09-27T11:00:28.496Z,33.50
2018-09-27T11:01:28.484Z,34.00
2018-09-27T11:02:28.473Z,34.48
2018-09-27T11:03:28.463Z,34.17
2018-09-27T11:04:28.480Z,33.57
2018-09-27T11:05:28.489Z,34.10
2018-09-27T11:06:28.430Z,34.59
2018-09-27T11:07:28.424Z,34.20
2018-09-27T11:08:28.413Z,35.17
2018-09-27T11:09:28.455Z,34.97
2018-09-27T11:10:28.397Z,34.73
2018-09-27T11:11:28.417Z,33.36
2018-09-27T11:12:28.370Z,33.54
2018-09-27T11:13:28.372Z,33.11
2018-09-27T11:14:28.350Z,32.71
2018-09-27T11:15:28.365Z,33.42
2018-09-27T11:16:28.370Z,33.72
2018-09-27T11:17:28.339Z,33.33
2018-09-27T11:18:28.324Z,34.22
2018-09-27T11:19:28.324Z,34.74
2018-09-27T11:20:28.315Z,35.16
2018-09-27T11:21:28.282Z,35.60
2018-09-27T11:22:28.278Z,35.90
2018-09-27T11:23:28.268Z,37.23
2018-09-27T11:24:28.249Z,37.13
2018-09-27T11:25:28.269Z,37.43
2018-09-27T11:26:28.236Z,36.20
2018-09-27T11:27:28.275Z,35.57
2018-09-27T11:28:28.210Z,36.03
2018-09-27T11:29:28.227Z,35.02
2018-09-27T11:30:28.194Z,34.43
2018-09-27T11:31:28.191Z,35.00
2018-09-27T11:32:28.170Z,35.21
2018-09-27T11:33:28.171Z,34.91
2018-09-27T11:34:28.184Z,35.19
2018-09-27T11:35:28.143Z,33.90
2018-09-27T11:36:28.161Z,33.98
2018-09-27T11:37:28.126Z,33.69
2018-09-27T11:38:28.168Z,32.70
2018-09-27T11:39:28.138Z,33.49
2018-09-27T11:40:28.099Z,33.94
2018-09-27T11:41:28.083Z,33.98
2018-09-27T11:42:28.131Z,36.02
2018-09-27T11:43:28.062Z,35.83
2018-09-27T11:44:28.056Z,37.03
2018-09-27T11:45:28.066Z,37.03
2018-09-27T11:46:28.027Z,36.79
2018-09-27T11:47:28.017Z,42.07
2018-09-27T11:48:28.007Z,39.97
2018-09-27T11:49:28.113Z,39.14
2018-09-27T11:50:28.026Z,35.17
2018-09-27T11:51:27.985Z,35.86
2018-09-27T11:52:27.976Z,35.17
2018-09-27T11:53:27.954Z,34.86
2018-09-27T11:54:27.949Z,35.24
2018-09-27T11:55:29.174Z,35.91
2018-09-27T11:56:27.923Z,35.40
2018-09-27T11:57:27.920Z,35.99
2018-09-27T11:58:27.905Z,36.57
2018-09-27T11:59:28.869Z,35.98
2018-09-27T12:00:27.974Z,34.78
2018-09-27T12:01:27.895Z,32.04
2018-09-27T12:02:27.869Z,30.04
2018-09-27T12:03:27.854Z,29.46
2018-09-27T12:04:27.839Z,29.34
2018-09-27T12:05:27.833Z,29.51
2018-09-27T12:06:27.884Z,29.41
2018-09-27T12:07:27.836Z,29.87
2018-09-27T12:08:27.828Z,27.61
2018-09-27T12:09:27.787Z,27.32
2018-09-27T12:10:27.779Z,28.09
2018-09-27T12:11:27.799Z,28.37
2018-09-27T12:12:27.787Z,27.50
2018-09-27T12:13:27.878Z,27.80
2018-09-27T12:14:27.848Z,27.70
2018-09-27T12:15:27.761Z,27.87
2018-09-27T12:16:27.724Z,29.73
2018-09-27T12:17:27.772Z,29.83
2018-09-27T12:18:27.708Z,27.26
2018-09-27T12:19:27.783Z,26.80
2018-09-27T12:20:27.678Z,27.01
2018-09-27T12:21:27.670Z,27.11
2018-09-27T12:22:27.665Z,29.85
2018-09-27T12:23:27.686Z,29.73
2018-09-27T12:24:27.658Z,29.44
2018-09-27T12:25:27.687Z,29.24
2018-09-27T12:26:27.621Z,28.54
2018-09-27T12:27:27.610Z,27.09
2018-09-27T12:28:27.620Z,27.92
2018-09-27T12:29:27.599Z,29.11
2018-09-27T12:30:27.912Z,30.00
2018-09-27T12:31:27.600Z,30.97
2018-09-27T12:32:27.581Z,31.94
2018-09-27T12:33:28.380Z,30.45
2018-09-27T12:34:27.626Z,30.25
2018-09-27T12:35:27.566Z,29.24
2018-09-27T12:36:27.543Z,27.94
2018-09-27T12:37:27.505Z,26.64
2018-09-27T12:38:27.555Z,26.64
2018-09-27T12:39:27.532Z,25.65
2018-09-27T12:40:27.511Z,25.84
2018-09-27T12:41:27.507Z,25.55
2018-09-27T12:42:27.512Z,25.92
2018-09-27T12:43:27.443Z,26.31
2018-09-27T12:44:27.440Z,24.15
2018-09-27T12:45:27.469Z,24.58
2018-09-27T12:46:27.511Z,24.80
2018-09-27T12:47:27.419Z,25.10
2018-09-27T12:48:27.451Z,26.78
2018-09-27T12:49:27.388Z,26.46
2018-09-27T12:50:27.453Z,28.64
2018-09-27T12:51:27.382Z,33.12
2018-09-27T12:52:27.567Z,31.49
2018-09-27T12:53:27.344Z,31.27
2018-09-27T12:54:27.340Z,26.95
2018-09-27T12:55:27.360Z,23.36
2018-09-27T12:56:27.317Z,23.61
2018-09-27T12:57:27.309Z,22.13
2018-09-27T12:58:27.309Z,22.11
2018-09-27T12:59:27.284Z,22.09
2018-09-27T13:00:27.297Z,22.09
2018-09-27T13:01:27.280Z,20.85
2018-09-27T13:02:27.343Z,20.86
2018-09-27T13:03:27.253Z,21.09
2018-09-27T13:04:27.250Z,22.16
2018-09-27T13:05:27.330Z,21.99
2018-09-27T13:06:27.226Z,22.69
2018-09-27T13:07:27.230Z,23.19
2018-09-27T13:08:27.246Z,23.00
2018-09-27T13:09:27.328Z,23.08
2018-09-27T13:10:27.182Z,22.38
2018-09-27T13:11:27.196Z,22.16
2018-09-27T13:12:27.296Z,22.16
2018-09-27T13:13:27.287Z,22.33
2018-09-27T13:14:27.160Z,21.94
2018-09-27T13:15:27.130Z,22.02
2018-09-27T13:16:27.144Z,22.30
2018-09-27T13:17:27.152Z,22.20
2018-09-27T13:18:27.105Z,22.34
2018-09-27T13:19:27.141Z,23.88
2018-09-27T13:20:27.151Z,22.67
2018-09-27T13:21:27.159Z,22.17
2018-09-27T13:22:27.089Z,22.47
2018-09-27T13:23:27.076Z,22.45
2018-09-27T13:24:27.070Z,23.32
2018-09-27T13:25:27.040Z,22.72
2018-09-27T13:26:27.138Z,23.00
2018-09-27T13:27:27.018Z,23.30
2018-09-27T13:28:27.099Z,22.80
2018-09-27T13:29:27.001Z,22.50
2018-09-27T13:30:26.984Z,22.41
2018-09-27T13:31:27.032Z,22.02
2018-09-27T13:32:26.969Z,22.88
2018-09-27T13:33:26.957Z,22.49
2018-09-27T13:34:26.949Z,22.28
2018-09-27T13:35:26.943Z,21.13
2018-09-27T13:36:26.983Z,20.97
2018-09-27T13:37:26.925Z,21.55
2018-09-27T13:38:26.932Z,22.16
2018-09-27T13:39:26.899Z,22.16
2018-09-27T13:40:26.897Z,22.38
2018-09-27T13:41:26.881Z,22.21
2018-09-27T13:42:26.873Z,23.28
2018-09-27T13:43:26.905Z,23.38
2018-09-27T13:44:26.863Z,23.28
2018-09-27T13:45:26.846Z,23.08
2018-09-27T13:46:26.894Z,23.36
2018-09-27T13:47:26.823Z,23.36
2018-09-27T13:48:26.843Z,22.97
2018-09-27T13:49:26.808Z,23.74
2018-09-27T13:50:26.797Z,23.56
2018-09-27T13:51:26.794Z,23.47
2018-09-27T13:52:26.774Z,23.57
2018-09-27T13:53:26.766Z,23.58
2018-09-27T13:54:26.774Z,23.39
2018-09-27T13:55:26.752Z,23.71
2018-09-27T13:56:26.733Z,23.51
2018-09-27T13:57:26.804Z,23.80
2018-09-27T13:58:26.718Z,23.78
2018-09-27T13:59:26.728Z,23.67
2018-09-27T14:00:26.697Z,24.35
2018-09-27T14:01:26.684Z,24.45
2018-09-27T14:02:26.674Z,23.58
2018-09-27T14:03:26.677Z,23.80
2018-09-27T14:04:26.683Z,23.82
2018-09-27T14:05:26.682Z,24.61
2018-09-27T14:06:26.641Z,23.44
2018-09-27T14:07:26.630Z,24.43
2018-09-27T14:08:26.629Z,24.52
2018-09-27T14:09:26.646Z,24.52
2018-09-27T14:10:26.609Z,24.61
2018-09-27T14:11:26.583Z,24.79
2018-09-27T14:12:26.579Z,23.43
2018-09-27T14:13:26.568Z,23.71
2018-09-27T14:14:26.574Z,24.11
2018-09-27T14:15:26.569Z,23.91
2018-09-27T14:16:26.534Z,24.60
2018-09-27T14:17:26.532Z,25.07
2018-09-27T14:18:26.517Z,24.18
2018-09-27T14:19:26.507Z,24.00
2018-09-27T14:20:26.536Z,24.58
2018-09-27T14:21:26.487Z,24.01
2018-09-27T14:22:26.478Z,23.33
2018-09-27T14:23:26.470Z,23.72
2018-09-27T14:24:26.461Z,24.12
2018-09-27T14:25:26.487Z,24.91
2018-09-27T14:26:26.449Z,24.32
2018-09-27T14:27:26.423Z,24.32
2018-09-27T14:28:26.416Z,24.40
2018-09-27T14:29:26.409Z,23.33
2018-09-27T14:30:26.389Z,24.29
2018-09-27T14:31:26.429Z,23.52
2018-09-27T14:32:26.371Z,23.72
2018-09-27T14:33:26.362Z,24.22
2018-09-27T14:34:26.406Z,23.54
2018-09-27T14:35:26.389Z,23.93
2018-09-27T14:36:26.357Z,24.71
2018-09-27T14:37:26.330Z,24.42
2018-09-27T14:38:26.330Z,24.71
2018-09-27T14:39:26.304Z,24.82
2018-09-27T14:40:26.295Z,24.84
2018-09-27T14:41:26.321Z,24.74
2018-09-27T14:42:26.285Z,24.15
2018-09-27T14:43:26.260Z,24.43
2018-09-27T14:44:26.257Z,24.63
2018-09-27T14:45:26.245Z,24.91
2018-09-27T14:46:26.265Z,24.22
2018-09-27T14:47:26.302Z,24.91
2018-09-27T14:48:26.218Z,24.71
2018-09-27T14:49:26.218Z,23.96
2018-09-27T14:50:26.198Z,24.46
2018-09-27T14:51:26.189Z,24.77
2018-09-27T14:52:26.229Z,24.98
2018-09-27T14:53:26.180Z,25.10
2018-09-27T14:54:26.148Z,25.87
2018-09-27T14:55:26.158Z,25.20
2018-09-27T14:56:26.135Z,25.59
2018-09-27T14:57:26.151Z,25.10
2018-09-27T14:58:26.159Z,24.81
2018-09-27T14:59:26.099Z,25.22
2018-09-27T15:00:26.106Z,25.40
2018-09-27T15:01:26.085Z,25.90
2018-09-27T15:02:26.174Z,25.71
2018-09-27T15:03:26.091Z,25.31
2018-09-27T15:04:26.101Z,25.51
2018-09-27T15:05:26.035Z,25.83
2018-09-27T15:06:26.052Z,27.01
2018-09-27T15:07:26.021Z,26.80
2018-09-27T15:08:26.036Z,26.59
2018-09-27T15:09:26.090Z,26.78
2018-09-27T15:10:26.112Z,25.29
2018-09-27T15:11:25.978Z,25.79
2018-09-27T15:12:26.013Z,25.92
2018-09-27T15:13:25.989Z,26.52
2018-09-27T15:14:25.998Z,26.81
2018-09-27T15:15:25.940Z,27.12
2018-09-27T15:16:26.024Z,26.73
2018-09-27T15:17:25.923Z,27.62
2018-09-27T15:18:25.911Z,27.94
2018-09-27T15:19:25.941Z,27.53
2018-09-27T15:20:25.886Z,27.80
2018-09-27T15:21:25.872Z,27.70
2018-09-27T15:22:25.919Z,27.37
2018-09-27T15:23:25.864Z,27.00
2018-09-27T15:24:25.888Z,27.20
2018-09-27T15:25:25.841Z,27.61
2018-09-27T15:26:25.854Z,27.32
2018-09-27T15:27:25.836Z,27.91
2018-09-27T15:28:25.819Z,27.91
2018-09-27T15:29:25.860Z,27.51
2018-09-27T15:30:25.866Z,27.72
2018-09-27T15:31:25.804Z,28.42
2018-09-27T15:32:25.786Z,27.64
2018-09-27T15:33:25.753Z,28.72
2018-09-27T15:34:25.818Z,28.81
2018-09-27T15:35:25.802Z,29.30
2018-09-27T15:36:25.745Z,28.31
2018-09-27T15:37:25.713Z,29.79
2018-09-27T15:38:25.719Z,29.82
2018-09-27T15:39:25.696Z,30.02
2018-09-27T15:40:25.707Z,29.93
2018-09-27T15:41:25.671Z,29.94
2018-09-27T15:42:25.667Z,29.78
2018-09-27T15:43:25.654Z,31.47
2018-09-27T15:44:25.641Z,31.10
2018-09-27T15:45:25.673Z,32.22
2018-09-27T15:46:25.619Z,32.53
2018-09-27T15:47:25.619Z,32.25
2018-09-27T15:48:25.599Z,32.86
2018-09-27T15:49:25.605Z,34.17
2018-09-27T15:50:25.576Z,34.08
2018-09-27T15:51:25.656Z,35.29
2018-09-27T15:52:25.563Z,35.29
2018-09-27T15:53:25.545Z,34.01
2018-09-27T15:54:25.534Z,34.73
2018-09-27T15:55:25.537Z,35.44
2018-09-27T15:56:25.556Z,36.04
2018-09-27T15:57:25.506Z,35.85
2018-09-27T15:58:25.531Z,36.05
2018-09-27T15:59:25.496Z,36.65
2018-09-27T16:00:25.482Z,37.16
2018-09-27T16:01:25.508Z,37.86
2018-09-27T16:02:25.451Z,37.16
2018-09-27T16:03:25.501Z,35.79
2018-09-27T16:04:25.455Z,36.19
2018-09-27T16:05:25.428Z,36.68
2018-09-27T16:06:25.476Z,37.38
2018-09-27T16:07:25.420Z,37.79
2018-09-27T16:08:25.393Z,38.29
2018-09-27T16:09:25.385Z,38.29
2018-09-27T16:10:25.372Z,37.71
2018-09-27T16:11:25.379Z,37.41
2018-09-27T16:12:25.375Z,38.01
2018-09-27T16:13:25.342Z,37.81
2018-09-27T16:14:25.328Z,38.71
2018-09-27T16:15:25.314Z,38.53
2018-09-27T16:16:25.307Z,39.12
2018-09-27T16:17:25.331Z,39.12
2018-09-27T16:18:25.294Z,39.44
2018-09-27T16:19:25.269Z,40.24
2018-09-27T16:20:25.257Z,40.34
2018-09-27T16:21:25.259Z,40.16
2018-09-27T16:22:25.273Z,39.66
2018-09-27T16:23:25.227Z,40.76
2018-09-27T16:24:25.229Z,40.58
2018-09-27T16:25:25.214Z,40.78
2018-09-27T16:26:25.223Z,41.19
2018-09-27T16:27:25.215Z,41.89
2018-09-27T16:28:25.189Z,42.51
2018-09-27T16:29:25.211Z,42.91
2018-09-27T16:30:25.149Z,43.31
2018-09-27T16:31:25.141Z,45.21
2018-09-27T16:32:25.128Z,44.93
2018-09-27T16:33:25.170Z,45.53
2018-09-27T16:34:25.113Z,45.15
2018-09-27T16:35:25.099Z,45.85
2018-09-27T16:36:25.087Z,46.45
2018-09-27T16:37:25.084Z,45.95
2018-09-27T16:38:25.097Z,46.27
2018-09-27T16:39:25.057Z,47.17
2018-09-27T16:40:25.086Z,46.80
2018-09-27T16:41:25.062Z,47.79
2018-09-27T16:42:25.053Z,47.19
2018-09-27T16:43:25.085Z,46.72
2018-09-27T16:44:25.004Z,47.22
2018-09-27T16:45:24.992Z,48.02
2018-09-27T16:46:24.992Z,48.24
2018-09-27T16:47:25.044Z,48.94
2018-09-27T16:48:24.965Z,48.94
2018-09-27T16:49:24.973Z,49.16
2018-09-27T16:50:24.948Z,49.37
2018-09-27T16:51:24.933Z,49.66
2018-09-27T16:52:24.927Z,49.99
2018-09-27T16:53:24.927Z,50.42
2018-09-27T16:54:24.925Z,51.12
2018-09-27T16:55:24.898Z,50.81
2018-09-27T16:56:24.874Z,51.01
2018-09-27T16:57:24.866Z,51.34
2018-09-27T16:58:24.852Z,51.54
2018-09-27T16:59:24.933Z,51.97
2018-09-27T17:00:24.832Z,52.55
2018-09-27T17:01:24.827Z,52.26
2018-09-27T17:02:24.828Z,52.80
2018-09-27T17:03:24.810Z,53.00
2018-09-27T17:04:24.796Z,53.72
2018-09-27T17:05:24.851Z,53.82
2018-09-27T17:06:24.770Z,54.13
2018-09-27T17:07:24.760Z,54.53
2018-09-27T17:08:24.753Z,54.55
2018-09-27T17:09:24.861Z,54.45
2018-09-27T17:10:24.769Z,54.65
2018-09-27T17:11:24.733Z,54.85
2018-09-27T17:12:24.708Z,55.08
2018-09-27T17:13:24.703Z,55.38
2018-09-27T17:14:24.700Z,55.51
2018-09-27T17:15:24.709Z,55.68
2018-09-27T17:16:24.701Z,55.38
2018-09-27T17:17:24.689Z,55.71
2018-09-27T17:18:24.651Z,56.01
2018-09-27T17:19:24.651Z,55.81
2018-09-27T17:20:24.653Z,56.04
2018-09-27T17:21:24.655Z,56.04
2018-09-27T17:22:24.616Z,55.94
2018-09-27T17:23:24.623Z,55.94
2018-09-27T17:24:24.626Z,56.07
2018-09-27T17:25:24.574Z,56.16
2018-09-27T17:26:24.601Z,56.27
2018-09-27T17:27:24.563Z,56.16
2018-09-27T17:28:24.544Z,56.47
2018-09-27T17:29:24.534Z,56.57
2018-09-27T17:30:24.522Z,56.70
2018-09-27T17:31:24.600Z,56.90
2018-09-27T17:32:24.511Z,57.00
2018-09-27T17:33:24.514Z,56.90
2018-09-27T17:34:24.471Z,57.00
2018-09-27T17:35:24.533Z,57.40
2018-09-27T17:36:24.451Z,57.43
2018-09-27T17:37:24.496Z,58.14
2018-09-27T17:38:24.432Z,57.83
2018-09-27T17:39:24.429Z,58.34
2018-09-27T17:40:24.488Z,58.34
2018-09-27T17:41:24.403Z,58.64
2018-09-27T17:42:24.418Z,58.67
2018-09-27T17:43:24.395Z,58.97
2018-09-27T17:44:24.365Z,58.56
2018-09-27T17:45:24.353Z,58.67
2018-09-27T17:46:24.368Z,59.00
2018-09-27T17:47:24.381Z,59.50
2018-09-27T17:48:24.333Z,59.60
2018-09-27T17:49:24.316Z,60.24
2018-09-27T17:50:24.304Z,60.13
2018-09-27T17:51:24.292Z,60.13
2018-09-27T17:52:24.280Z,60.13
2018-09-27T17:53:24.475Z,59.93
2018-09-27T17:54:24.264Z,60.44
2018-09-27T17:55:24.272Z,60.24
2018-09-27T17:56:24.233Z,60.24
2018-09-27T17:57:24.224Z,60.03
2018-09-27T17:58:24.281Z,60.03
2018-09-27T17:59:24.209Z,60.03
2018-09-27T18:00:24.205Z,60.77
2018-09-27T18:01:24.198Z,60.57
2018-09-27T18:02:24.174Z,60.46
2018-09-27T18:03:24.196Z,60.77
2018-09-27T18:04:24.150Z,60.57
2018-09-27T18:05:24.147Z,60.46
2018-09-27T18:06:24.125Z,60.46
2018-09-27T18:07:24.126Z,60.39
2018-09-27T18:08:24.109Z,60.39
2018-09-27T18:09:24.115Z,60.80
2018-09-27T18:10:24.082Z,60.80
2018-09-27T18:11:24.072Z,61.00
2018-09-27T18:12:24.068Z,61.23
2018-09-27T18:13:24.057Z,61.53
2018-09-27T18:14:24.079Z,61.83
2018-09-27T18:15:24.044Z,62.24
2018-09-27T18:16:24.022Z,62.34
2018-09-27T18:17:24.013Z,62.44
2018-09-27T18:18:24.001Z,62.24
2018-09-27T18:19:24.023Z,62.67
2018-09-27T18:20:23.979Z,62.57
2018-09-27T18:21:23.969Z,62.77
2018-09-27T18:22:23.975Z,62.47
2018-09-27T18:23:23.953Z,62.57
2018-09-27T18:24:23.975Z,62.57
2018-09-27T18:25:23.926Z,62.47
2018-09-27T18:26:23.934Z,62.98
2018-09-27T18:27:23.911Z,63.28
2018-09-27T18:28:23.892Z,62.87
2018-09-27T18:29:23.891Z,62.70
2018-09-27T18:30:23.890Z,63.28
2018-09-27T18:31:23.901Z,62.87
2018-09-27T18:32:23.852Z,63.08
2018-09-27T18:33:23.857Z,63.01
2018-09-27T18:34:23.866Z,62.70
2018-09-27T18:35:23.845Z,62.60
2018-09-27T18:36:23.809Z,62.90
2018-09-27T18:37:23.836Z,62.70
2018-09-27T18:38:23.884Z,63.01
2018-09-27T18:39:23.774Z,63.01
2018-09-27T18:40:23.794Z,62.70
2018-09-27T18:41:23.768Z,63.64
2018-09-27T18:42:23.755Z,63.64
2018-09-27T18:43:23.733Z,63.54
2018-09-27T18:44:23.729Z,63.64
2018-09-27T18:45:23.741Z,63.75
2018-09-27T18:46:23.708Z,63.78
2018-09-27T18:47:23.691Z,64.07
2018-09-27T18:48:23.736Z,64.18
2018-09-27T18:49:23.671Z,64.07
2018-09-27T18:50:23.697Z,64.07
2018-09-27T18:51:23.749Z,64.28
2018-09-27T18:52:23.646Z,64.38
2018-09-27T18:53:23.654Z,64.18
2018-09-27T18:54:23.612Z,64.48
2018-09-27T18:55:23.603Z,64.01
2018-09-27T18:56:23.618Z,64.28
2018-09-27T18:57:23.581Z,64.07
2018-09-27T18:58:23.593Z,63.98
2018-09-27T18:59:23.562Z,63.57
2018-09-27T19:00:23.570Z,63.67
2018-09-27T19:01:24.018Z,64.21
2018-09-27T19:02:23.540Z,64.11
2018-09-27T19:03:23.515Z,64.54
2018-09-27T19:04:23.505Z,64.95
2018-09-27T19:05:23.511Z,64.95
2018-09-27T19:06:23.503Z,65.15
2018-09-27T19:07:23.522Z,65.15
2018-09-27T19:08:23.519Z,65.25
2018-09-27T19:09:23.484Z,65.15
2018-09-27T19:10:23.440Z,64.75
2018-09-27T19:11:23.443Z,64.95
2018-09-27T19:12:23.463Z,64.95
2018-09-27T19:13:23.406Z,64.85
2018-09-27T19:14:23.397Z,64.85
2018-09-27T19:15:23.427Z,64.85
2018-09-27T19:16:23.420Z,64.98
2018-09-27T19:17:23.418Z,65.05
2018-09-27T19:18:23.357Z,64.98
2018-09-27T19:19:23.346Z,64.98
2018-09-27T19:20:23.357Z,64.64
2018-09-27T19:21:23.340Z,65.05
2018-09-27T19:22:23.325Z,64.95
2018-09-27T19:23:23.347Z,64.58
2018-09-27T19:24:23.306Z,64.67
2018-09-27T19:25:23.288Z,64.58
2018-09-27T19:26:23.267Z,64.67
2018-09-27T19:27:23.273Z,65.08
2018-09-27T19:28:23.278Z,64.98
2018-09-27T19:29:23.258Z,65.21
2018-09-27T19:30:23.239Z,65.28
2018-09-27T19:31:23.245Z,65.72
2018-09-27T19:32:23.208Z,66.13
2018-09-27T19:33:23.254Z,66.13
2018-09-27T19:34:23.194Z,65.52
2018-09-27T19:35:23.195Z,65.31
2018-09-27T19:36:23.172Z,65.42
2018-09-27T19:37:23.156Z,65.31
2018-09-27T19:38:23.170Z,65.52
2018-09-27T19:39:23.273Z,65.85
2018-09-27T19:40:23.134Z,66.16
2018-09-27T19:41:23.123Z,66.16
2018-09-27T19:42:23.110Z,65.85
2018-09-27T19:43:23.112Z,65.85
2018-09-27T19:44:23.119Z,65.95
2018-09-27T19:45:23.090Z,66.08
2018-09-27T19:46:23.063Z,66.05
2018-09-27T19:47:23.056Z,65.55
2018-09-27T19:48:23.039Z,65.34
2018-09-27T19:49:23.100Z,65.45
2018-09-27T19:50:23.045Z,65.75
2018-09-27T19:51:23.012Z,65.78
2018-09-27T19:52:23.079Z,65.48
2018-09-27T19:53:22.985Z,65.78
2018-09-27T19:54:22.979Z,65.88
2018-09-27T19:55:22.993Z,66.19
2018-09-27T19:56:22.950Z,66.49
2018-09-27T19:57:22.958Z,66.08
2018-09-27T19:58:23.358Z,66.08
2018-09-27T19:59:22.992Z,65.88
2018-09-27T20:00:22.948Z,65.78
2018-09-27T20:01:22.902Z,65.68
2018-09-27T20:02:22.887Z,65.58
2018-09-27T20:03:22.879Z,65.34
2018-09-27T20:04:22.879Z,65.17
2018-09-27T20:05:22.901Z,65.17
2018-09-27T20:06:22.849Z,65.37
2018-09-27T20:07:22.900Z,65.17
2018-09-27T20:08:22.825Z,65.61
2018-09-27T20:09:22.819Z,65.78
2018-09-27T20:10:22.864Z,65.91
2018-09-27T20:11:22.813Z,65.91
2018-09-27T20:12:22.799Z,65.91
2018-09-27T20:13:22.782Z,66.22
2018-09-27T20:14:22.760Z,65.81
2018-09-27T20:15:22.747Z,65.68
2018-09-27T20:16:22.928Z,65.61
2018-09-27T20:17:22.734Z,65.91
2018-09-27T20:18:22.727Z,65.81
2018-09-27T20:19:22.706Z,65.71
2018-09-27T20:20:22.704Z,65.51
2018-09-27T20:21:22.714Z,65.81
2018-09-27T20:22:22.686Z,65.71
2018-09-27T20:23:22.694Z,66.25
2018-09-27T20:24:22.656Z,65.91
2018-09-27T20:25:22.640Z,66.15
2018-09-27T20:26:22.698Z,66.46
2018-09-27T20:27:22.624Z,66.46
2018-09-27T20:28:22.686Z,66.55
2018-09-27T20:29:22.618Z,66.66
2018-09-27T20:30:22.583Z,67.06
2018-09-27T20:31:22.582Z,66.96
2018-09-27T20:32:22.639Z,66.35
2018-09-27T20:33:22.574Z,66.76
2018-09-27T20:34:22.556Z,66.99
2018-09-27T20:35:22.549Z,66.46
2018-09-27T20:36:22.516Z,66.79
2018-09-27T20:37:22.542Z,67.10
2018-09-27T20:38:22.513Z,66.99
2018-09-27T20:39:22.483Z,66.79
2018-09-27T20:40:22.478Z,66.79
2018-09-27T20:41:22.492Z,66.79
2018-09-27T20:42:22.497Z,66.99
2018-09-27T20:43:22.454Z,66.38
2018-09-27T20:44:22.441Z,66.69
2018-09-27T20:45:22.418Z,66.58
2018-09-27T20:46:22.444Z,66.82
2018-09-27T20:47:22.447Z,68.11
2018-09-27T20:48:22.436Z,66.72
2018-09-27T20:49:22.377Z,66.69
2018-09-27T20:50:22.408Z,66.99
2018-09-27T20:51:22.385Z,67.43
2018-09-27T20:52:22.369Z,67.22
2018-09-27T20:53:22.363Z,67.53
2018-09-27T20:54:22.332Z,67.83
2018-09-27T20:55:22.346Z,67.94
2018-09-27T20:56:22.302Z,67.02
2018-09-27T20:57:22.295Z,67.83
2018-09-27T20:58:22.306Z,67.02
2018-09-27T20:59:22.275Z,67.02
2018-09-27T21:00:22.267Z,67.33
2018-09-27T21:01:22.255Z,67.02
2018-09-27T21:02:22.237Z,66.52
2018-09-27T21:03:22.292Z,66.41
2018-09-27T21:04:22.217Z,66.21
2018-09-27T21:05:22.220Z,66.44
2018-09-27T21:06:22.202Z,67.05
2018-09-27T21:07:22.200Z,66.96
2018-09-27T21:08:22.182Z,66.75
2018-09-27T21:09:22.201Z,67.26
2018-09-27T21:10:22.157Z,66.75
2018-09-27T21:11:22.163Z,66.78
2018-09-27T21:12:22.144Z,66.65
2018-09-27T21:13:22.122Z,67.19
2018-09-27T21:14:22.141Z,67.08
2018-09-27T21:15:22.123Z,67.16
2018-09-27T21:16:22.092Z,66.96
2018-09-27T21:17:22.097Z,66.88